sensor_id;sensor_type;location;lat;lon;timestamp;P1;durP1;ratioP1;P2;durP2;ratioP2
18677;SDS011;9469;51.114;13.914;2022-08-19T00:41:15;14.23;;;12.20;;
18677;SDS011;9469;51.114;13.914;2022-08-19T00:46:26;14.10;;;11.73;;
18677;SDS011;9469;51.114;13.914;2022-08-19T00:51:35;14.83;;;13.03;;
18677;SDS011;9469;51.114;13.914;2022-08-19T00:56:45;15.70;;;13.63;;
18677;SDS011;9469;51.114;13.914;2022-08-19T01:01:54;17.90;;;14.27;;
18677;SDS011;9469;51.114;13.914;2022-08-19T01:07:03;18.80;;;14.80;;
18677;SDS011;9469;51.114;13.914;2022-08-19T01:40:50;17.40;;;15.70;;
18677;SDS011;9469;51.114;13.914;2022-08-19T01:45:57;21.77;;;16.37;;
18677;SDS011;9469;51.114;13.914;2022-08-19T04:08:22;25.90;;;22.00;;
18677;SDS011;9469;51.114;13.914;2022-08-19T05:45:41;27.20;;;24.27;;
18677;SDS011;9469;51.114;13.914;2022-08-19T06:59:04;21.43;;;18.43;;
18677;SDS011;9469;51.114;13.914;2022-08-19T07:04:12;18.47;;;16.57;;
18677;SDS011;9469;51.114;13.914;2022-08-19T07:09:19;19.13;;;17.13;;
18677;SDS011;9469;51.114;13.914;2022-08-19T07:14:29;18.27;;;16.47;;
18677;SDS011;9469;51.114;13.914;2022-08-19T07:19:38;20.93;;;18.10;;
18677;SDS011;9469;51.114;13.914;2022-08-19T07:24:45;20.67;;;18.33;;
18677;SDS011;9469;51.114;13.914;2022-08-19T07:29:55;21.13;;;17.57;;
18677;SDS011;9469;51.114;13.914;2022-08-19T07:51:27;22.27;;;19.87;;
18677;SDS011;9469;51.114;13.914;2022-08-19T07:56:41;22.20;;;19.23;;
18677;SDS011;9469;51.114;13.914;2022-08-19T08:01:57;21.47;;;19.07;;
18677;SDS011;9469;51.114;13.914;2022-08-19T08:12:44;22.93;;;19.93;;
18677;SDS011;9469;51.114;13.914;2022-08-19T08:34:47;22.43;;;19.33;;
18677;SDS011;9469;51.114;13.914;2022-08-19T08:39:55;20.43;;;17.07;;
18677;SDS011;9469;51.114;13.914;2022-08-19T08:45:17;22.67;;;18.80;;
18677;SDS011;9469;51.114;13.914;2022-08-19T08:50:31;22.90;;;18.83;;
18677;SDS011;9469;51.114;13.914;2022-08-19T08:55:49;22.23;;;17.53;;
18677;SDS011;9469;51.114;13.914;2022-08-19T09:01:01;18.77;;;16.80;;
18677;SDS011;9469;51.114;13.914;2022-08-19T09:06:18;21.20;;;17.93;;
18677;SDS011;9469;51.114;13.914;2022-08-19T09:17:15;20.73;;;18.60;;
18677;SDS011;9469;51.114;13.914;2022-08-19T09:22:41;20.07;;;17.93;;
18677;SDS011;9469;51.114;13.914;2022-08-19T10:18:35;14.07;;;11.97;;
18677;SDS011;9469;51.114;13.914;2022-08-19T10:23:52;17.63;;;14.70;;
18677;SDS011;9469;51.114;13.914;2022-08-19T10:29:03;13.77;;;12.53;;
18677;SDS011;9469;51.114;13.914;2022-08-19T10:45:56;12.93;;;11.63;;
18677;SDS011;9469;51.114;13.914;2022-08-19T12:22:32;18.63;;;16.37;;
18677;SDS011;9469;51.114;13.914;2022-08-19T12:27:43;19.33;;;17.27;;
18677;SDS011;9469;51.114;13.914;2022-08-19T12:32:59;22.50;;;18.77;;
18677;SDS011;9469;51.114;13.914;2022-08-19T12:38:17;21.30;;;18.30;;
18677;SDS011;9469;51.114;13.914;2022-08-19T12:43:30;27.93;;;24.00;;
18677;SDS011;9469;51.114;13.914;2022-08-19T12:48:41;33.23;;;25.43;;
18677;SDS011;9469;51.114;13.914;2022-08-19T13:16:05;27.00;;;22.73;;
18677;SDS011;9469;51.114;13.914;2022-08-19T13:49:32;30.33;;;24.70;;
18677;SDS011;9469;51.114;13.914;2022-08-19T14:33:56;27.83;;;23.00;;
18677;SDS011;9469;51.114;13.914;2022-08-19T14:39:34;29.63;;;23.80;;
18677;SDS011;9469;51.114;13.914;2022-08-19T15:07:39;39.80;;;30.50;;
18677;SDS011;9469;51.114;13.914;2022-08-19T15:18:35;41.83;;;31.03;;
18677;SDS011;9469;51.114;13.914;2022-08-19T15:29:33;37.40;;;28.90;;
18677;SDS011;9469;51.114;13.914;2022-08-19T17:06:51;36.60;;;28.57;;
18677;SDS011;9469;51.114;13.914;2022-08-19T17:12:03;29.53;;;26.33;;
18677;SDS011;9469;51.114;13.914;2022-08-19T17:44:51;32.73;;;26.97;;
18677;SDS011;9469;51.114;13.914;2022-08-19T17:50:04;31.40;;;25.50;;
18677;SDS011;9469;51.114;13.914;2022-08-19T17:55:17;32.30;;;25.73;;
18677;SDS011;9469;51.114;13.914;2022-08-19T18:00:40;27.33;;;24.37;;
18677;SDS011;9469;51.114;13.914;2022-08-19T18:05:56;29.93;;;24.23;;
18677;SDS011;9469;51.114;13.914;2022-08-19T18:11:11;30.80;;;25.93;;
18677;SDS011;9469;51.114;13.914;2022-08-19T18:16:22;29.60;;;25.30;;
18677;SDS011;9469;51.114;13.914;2022-08-19T18:21:33;31.03;;;26.43;;
18677;SDS011;9469;51.114;13.914;2022-08-19T18:32:17;29.97;;;24.80;;
18677;SDS011;9469;51.114;13.914;2022-08-19T18:37:28;26.97;;;23.23;;
18677;SDS011;9469;51.114;13.914;2022-08-19T18:42:48;28.20;;;24.37;;
18677;SDS011;9469;51.114;13.914;2022-08-19T18:48:19;25.93;;;23.00;;
18677;SDS011;9469;51.114;13.914;2022-08-19T18:53:43;26.67;;;22.43;;
18677;SDS011;9469;51.114;13.914;2022-08-19T18:59:03;29.33;;;22.97;;
18677;SDS011;9469;51.114;13.914;2022-08-19T19:04:14;26.60;;;23.70;;
18677;SDS011;9469;51.114;13.914;2022-08-19T19:09:21;26.13;;;23.07;;
18677;SDS011;9469;51.114;13.914;2022-08-19T19:14:37;29.17;;;23.87;;
18677;SDS011;9469;51.114;13.914;2022-08-19T19:19:53;28.97;;;22.80;;
18677;SDS011;9469;51.114;13.914;2022-08-19T19:25:06;28.47;;;22.80;;
18677;SDS011;9469;51.114;13.914;2022-08-19T19:30:17;27.23;;;23.03;;
18677;SDS011;9469;51.114;13.914;2022-08-19T19:41:13;26.63;;;21.33;;
18677;SDS011;9469;51.114;13.914;2022-08-19T19:57:45;26.17;;;23.30;;
18677;SDS011;9469;51.114;13.914;2022-08-19T20:02:51;28.53;;;24.37;;
18677;SDS011;9469;51.114;13.914;2022-08-19T20:08:02;31.37;;;25.67;;
18677;SDS011;9469;51.114;13.914;2022-08-19T20:13:24;31.37;;;25.37;;
18677;SDS011;9469;51.114;13.914;2022-08-19T20:18:34;33.43;;;26.43;;
18677;SDS011;9469;51.114;13.914;2022-08-19T20:23:41;34.13;;;27.50;;
18677;SDS011;9469;51.114;13.914;2022-08-19T20:29:12;32.33;;;26.93;;
18677;SDS011;9469;51.114;13.914;2022-08-19T20:34:41;32.63;;;28.10;;
18677;SDS011;9469;51.114;13.914;2022-08-19T20:39:50;45.70;;;32.80;;
18677;SDS011;9469;51.114;13.914;2022-08-19T20:44:58;34.57;;;28.77;;
18677;SDS011;9469;51.114;13.914;2022-08-19T20:50:22;36.27;;;28.93;;
18677;SDS011;9469;51.114;13.914;2022-08-19T20:55:33;37.97;;;29.60;;
18677;SDS011;9469;51.114;13.914;2022-08-19T21:00:42;37.80;;;30.53;;
18677;SDS011;9469;51.114;13.914;2022-08-19T21:05:49;37.83;;;30.03;;
18677;SDS011;9469;51.114;13.914;2022-08-19T21:10:55;39.57;;;31.43;;
18677;SDS011;9469;51.114;13.914;2022-08-19T21:16:04;41.60;;;30.57;;
18677;SDS011;9469;51.114;13.914;2022-08-19T21:21:10;40.00;;;31.27;;
18677;SDS011;9469;51.114;13.914;2022-08-19T21:26:17;44.70;;;33.10;;
18677;SDS011;9469;51.114;13.914;2022-08-19T21:31:26;44.17;;;32.57;;
18677;SDS011;9469;51.114;13.914;2022-08-19T21:36:32;41.07;;;31.07;;
18677;SDS011;9469;51.114;13.914;2022-08-19T21:41:38;43.43;;;31.97;;
18677;SDS011;9469;51.114;13.914;2022-08-19T21:46:47;43.80;;;32.67;;
18677;SDS011;9469;51.114;13.914;2022-08-19T21:51:52;42.53;;;30.80;;
18677;SDS011;9469;51.114;13.914;2022-08-19T21:56:58;42.37;;;30.50;;
18677;SDS011;9469;51.114;13.914;2022-08-19T22:02:13;41.53;;;31.67;;
18677;SDS011;9469;51.114;13.914;2022-08-19T22:07:22;37.60;;;31.07;;
18677;SDS011;9469;51.114;13.914;2022-08-19T22:12:31;36.40;;;29.33;;
18677;SDS011;9469;51.114;13.914;2022-08-19T22:17:50;36.80;;;28.73;;
18677;SDS011;9469;51.114;13.914;2022-08-19T22:22:57;37.90;;;29.07;;
18677;SDS011;9469;51.114;13.914;2022-08-19T22:28:07;36.13;;;27.23;;
18677;SDS011;9469;51.114;13.914;2022-08-19T22:33:22;34.27;;;28.13;;
18677;SDS011;9469;51.114;13.914;2022-08-19T22:38:34;34.17;;;26.83;;
18677;SDS011;9469;51.114;13.914;2022-08-19T22:49:21;37.23;;;28.20;;
18677;SDS011;9469;51.114;13.914;2022-08-19T22:54:28;35.83;;;27.23;;
18677;SDS011;9469;51.114;13.914;2022-08-19T22:59:35;35.33;;;27.13;;
18677;SDS011;9469;51.114;13.914;2022-08-19T23:04:44;37.27;;;27.17;;
18677;SDS011;9469;51.114;13.914;2022-08-19T23:09:53;32.67;;;25.87;;
18677;SDS011;9469;51.114;13.914;2022-08-19T23:15:05;34.40;;;27.50;;
18677;SDS011;9469;51.114;13.914;2022-08-19T23:20:17;37.07;;;27.23;;
18677;SDS011;9469;51.114;13.914;2022-08-19T23:25:25;35.50;;;26.97;;
18677;SDS011;9469;51.114;13.914;2022-08-19T23:30:37;35.43;;;27.67;;
18677;SDS011;9469;51.114;13.914;2022-08-19T23:35:47;31.60;;;26.07;;
18677;SDS011;9469;51.114;13.914;2022-08-19T23:40:54;33.37;;;26.10;;
18677;SDS011;9469;51.114;13.914;2022-08-19T23:46:02;31.43;;;25.97;;
18677;SDS011;9469;51.114;13.914;2022-08-19T23:51:15;33.03;;;26.70;;
18677;SDS011;9469;51.114;13.914;2022-08-19T23:56:23;37.73;;;28.57;;
